createdAt,value
2022-11-25T00:00:14.113Z,3.30
2022-11-25T00:02:44.038Z,3.33
2022-11-25T00:05:11.605Z,3.30
2022-11-25T00:07:39.093Z,3.03
2022-11-25T00:10:07.355Z,3.47
2022-11-25T00:12:35.020Z,3.27
2022-11-25T00:15:03.915Z,3.30
2022-11-25T00:17:31.313Z,3.40
2022-11-25T00:20:01.603Z,3.37
2022-11-25T00:22:29.025Z,3.40
2022-11-25T00:24:56.468Z,3.17
2022-11-25T00:27:23.917Z,2.97
2022-11-25T00:29:51.305Z,3.40
2022-11-25T00:32:20.444Z,3.00
2022-11-25T00:34:48.288Z,3.00
2022-11-25T00:37:15.773Z,3.43
2022-11-25T00:39:43.242Z,3.17
2022-11-25T00:42:28.839Z,3.37
2022-11-25T00:44:56.364Z,3.30
2022-11-25T00:47:25.098Z,3.53
2022-11-25T00:49:53.825Z,3.10
2022-11-25T00:52:22.054Z,4.17
2022-11-25T00:54:49.774Z,2.97
2022-11-25T00:57:17.776Z,2.83
2022-11-25T00:59:45.185Z,3.40
2022-11-25T01:02:13.230Z,4.10
2022-11-25T01:04:42.067Z,3.00
2022-11-25T01:07:09.758Z,2.90
2022-11-25T01:09:37.569Z,3.27
2022-11-25T01:12:05.468Z,3.10
2022-11-25T01:14:33.134Z,2.97
2022-11-25T01:17:01.085Z,3.10
2022-11-25T01:19:28.497Z,3.57
2022-11-25T01:21:57.296Z,3.27
2022-11-25T01:24:26.302Z,2.90
2022-11-25T01:26:54.871Z,3.13
2022-11-25T01:29:22.457Z,3.43
2022-11-25T01:31:49.900Z,3.03
2022-11-25T01:34:18.799Z,2.70
2022-11-25T01:36:46.363Z,2.70
2022-11-25T01:39:17.473Z,2.73
2022-11-25T01:41:44.937Z,3.10
2022-11-25T01:44:14.394Z,2.90
2022-11-25T01:46:50.674Z,3.00
2022-11-25T01:49:19.809Z,2.93
2022-11-25T01:51:49.786Z,3.10
2022-11-25T01:54:19.957Z,3.20
2022-11-25T01:56:49.787Z,3.10
2022-11-25T01:59:17.589Z,2.93
2022-11-25T02:01:45.039Z,3.00
2022-11-25T02:04:13.884Z,2.93
2022-11-25T02:06:43.263Z,2.90
2022-11-25T02:09:10.997Z,3.63
2022-11-25T02:11:41.113Z,3.27
2022-11-25T02:14:09.476Z,3.00
2022-11-25T02:16:36.976Z,3.03
2022-11-25T02:19:04.878Z,3.20
2022-11-25T02:21:36.579Z,3.30
2022-11-25T02:24:08.817Z,2.70
2022-11-25T02:26:37.675Z,3.20
2022-11-25T02:29:05.476Z,3.00
2022-11-25T02:31:32.983Z,2.80
2022-11-25T02:34:00.513Z,2.80
2022-11-25T02:36:28.061Z,3.27
2022-11-25T02:38:56.823Z,2.90
2022-11-25T02:41:27.211Z,3.30
2022-11-25T02:43:56.130Z,3.20
2022-11-25T02:46:24.798Z,3.10
2022-11-25T02:49:08.471Z,2.80
2022-11-25T02:51:37.436Z,2.87
2022-11-25T02:54:05.171Z,3.10
2022-11-25T02:56:33.543Z,2.93
2022-11-25T02:59:03.189Z,3.27
2022-11-25T03:01:31.736Z,3.07
2022-11-25T03:03:59.333Z,3.00
2022-11-25T03:06:26.752Z,3.10
2022-11-25T03:08:54.170Z,2.90
2022-11-25T03:11:41.572Z,2.90
2022-11-25T03:14:10.417Z,2.90
2022-11-25T03:16:37.891Z,3.10
2022-11-25T03:19:05.564Z,2.90
2022-11-25T03:21:33.005Z,2.90
2022-11-25T03:24:00.492Z,3.10
2022-11-25T03:26:27.883Z,2.80
2022-11-25T03:28:55.760Z,3.23
2022-11-25T03:31:24.580Z,2.50
2022-11-25T03:33:51.975Z,2.70
2022-11-25T03:36:19.454Z,2.93
2022-11-25T03:38:46.831Z,3.00
2022-11-25T03:41:14.201Z,3.23
2022-11-25T03:43:41.643Z,2.50
2022-11-25T03:46:09.101Z,2.30
2022-11-25T03:48:37.917Z,2.67
2022-11-25T03:51:05.409Z,2.80
2022-11-25T03:53:32.854Z,2.17
2022-11-25T03:56:00.310Z,2.57
2022-11-25T03:58:27.821Z,2.47
2022-11-25T04:00:55.292Z,3.10
2022-11-25T04:03:22.766Z,3.23
2022-11-25T04:05:51.544Z,2.77
2022-11-25T04:08:18.991Z,2.40
2022-11-25T04:10:46.455Z,2.70
2022-11-25T04:13:13.029Z,2.80
2022-11-25T04:15:44.860Z,2.90
2022-11-25T04:18:12.336Z,3.10
2022-11-25T04:20:39.772Z,2.90
2022-11-25T04:23:08.984Z,2.60
2022-11-25T04:25:37.205Z,2.47
2022-11-25T04:28:05.454Z,2.60
2022-11-25T04:30:33.097Z,2.50
2022-11-25T04:33:01.372Z,2.70
2022-11-25T04:35:29.095Z,2.93
2022-11-25T04:37:56.543Z,2.60
2022-11-25T04:40:25.329Z,2.53
2022-11-25T04:42:56.320Z,2.60
2022-11-25T04:45:40.677Z,2.73
2022-11-25T04:48:16.520Z,3.10
2022-11-25T04:50:44.050Z,2.70
2022-11-25T04:53:11.522Z,2.93
2022-11-25T04:55:40.541Z,2.70
2022-11-25T04:58:07.973Z,2.60
2022-11-25T05:00:34.428Z,2.97
2022-11-25T05:03:01.858Z,2.90
2022-11-25T05:05:29.262Z,2.70
2022-11-25T05:07:57.288Z,3.00
2022-11-25T05:10:24.713Z,3.00
2022-11-25T05:12:53.482Z,2.87
2022-11-25T05:15:20.915Z,3.27
2022-11-25T05:17:48.322Z,2.73
2022-11-25T05:20:15.841Z,3.53
2022-11-25T05:22:43.244Z,3.50
2022-11-25T05:25:11.848Z,3.40
2022-11-25T05:27:39.242Z,3.03
2022-11-25T05:30:09.216Z,3.03
2022-11-25T05:32:36.712Z,3.67
2022-11-25T05:35:04.246Z,2.90
2022-11-25T05:37:31.628Z,3.63
2022-11-25T05:39:59.117Z,3.37
2022-11-25T05:42:26.567Z,3.90
2022-11-25T05:44:53.993Z,3.73
2022-11-25T05:47:22.766Z,3.30
2022-11-25T05:49:50.195Z,3.53
2022-11-25T05:52:17.658Z,3.33
2022-11-25T05:54:45.072Z,3.93
2022-11-25T05:57:12.481Z,3.33
2022-11-25T05:59:39.938Z,3.80
2022-11-25T06:02:07.376Z,3.20
2022-11-25T06:04:36.598Z,3.70
2022-11-25T06:07:04.328Z,3.57
2022-11-25T06:09:31.789Z,3.87
2022-11-25T06:11:59.201Z,3.70
2022-11-25T06:14:26.578Z,3.50
2022-11-25T06:16:53.988Z,3.40
2022-11-25T06:19:21.406Z,4.23
2022-11-25T06:21:53.198Z,3.57
2022-11-25T06:24:20.610Z,4.00
2022-11-25T06:26:48.013Z,3.30
2022-11-25T06:29:15.461Z,3.40
2022-11-25T06:31:42.976Z,3.70
2022-11-25T06:34:10.464Z,3.63
2022-11-25T06:36:37.919Z,3.90
2022-11-25T06:39:06.809Z,3.37
2022-11-25T06:41:34.352Z,3.70
2022-11-25T06:44:01.760Z,3.90
2022-11-25T06:46:29.272Z,4.30
2022-11-25T06:48:56.762Z,3.80
2022-11-25T06:51:24.679Z,3.83
2022-11-25T06:53:52.135Z,3.50
2022-11-25T06:56:22.259Z,3.73
2022-11-25T06:58:49.941Z,3.93
2022-11-25T07:01:19.159Z,3.57
2022-11-25T07:03:47.630Z,4.20
2022-11-25T07:06:15.949Z,3.57
2022-11-25T07:08:43.528Z,3.60
2022-11-25T07:11:14.646Z,4.00
2022-11-25T07:13:43.466Z,4.20
2022-11-25T07:16:11.984Z,4.23
2022-11-25T07:18:40.938Z,4.23
2022-11-25T07:21:10.124Z,3.97
2022-11-25T07:23:38.415Z,3.80
2022-11-25T07:26:06.771Z,4.03
2022-11-25T07:28:34.320Z,3.70
2022-11-25T07:31:23.230Z,4.00
2022-11-25T07:33:52.657Z,3.90
2022-11-25T07:36:20.377Z,3.83
2022-11-25T07:38:47.872Z,4.60
2022-11-25T07:41:16.893Z,4.60
2022-11-25T07:43:45.436Z,4.00
2022-11-25T07:46:16.466Z,4.10
2022-11-25T07:48:44.480Z,4.43
2022-11-25T07:51:15.437Z,4.30
2022-11-25T07:53:42.890Z,5.20
2022-11-25T07:56:10.525Z,4.20
2022-11-25T07:58:42.854Z,4.70
2022-11-25T08:01:15.111Z,3.87
2022-11-25T08:03:43.862Z,3.90
2022-11-25T08:06:12.174Z,4.00
2022-11-25T08:08:40.238Z,4.40
2022-11-25T08:11:08.334Z,4.43
2022-11-25T08:13:35.735Z,4.23
2022-11-25T08:16:03.208Z,4.20
2022-11-25T08:18:32.030Z,3.90
2022-11-25T08:20:59.861Z,3.80
2022-11-25T08:23:27.275Z,3.97
2022-11-25T08:25:54.690Z,4.00
2022-11-25T08:28:22.264Z,4.37
2022-11-25T08:30:49.755Z,3.90
2022-11-25T08:33:17.202Z,3.80
2022-11-25T08:35:46.029Z,4.27
2022-11-25T08:38:13.701Z,3.77
2022-11-25T08:40:44.830Z,4.13
2022-11-25T08:43:12.258Z,3.83
2022-11-25T08:45:39.641Z,4.77
2022-11-25T08:48:07.132Z,4.50
2022-11-25T08:50:35.178Z,4.77
2022-11-25T08:53:03.973Z,4.40
2022-11-25T08:55:32.652Z,4.37
2022-11-25T08:58:00.042Z,4.30
2022-11-25T09:00:27.433Z,4.53
2022-11-25T09:02:54.934Z,4.80
2022-11-25T09:05:22.593Z,4.63
2022-11-25T09:07:50.121Z,4.17
2022-11-25T09:10:18.973Z,4.50
2022-11-25T09:12:46.474Z,3.43
2022-11-25T09:15:13.881Z,3.97
2022-11-25T09:17:41.363Z,4.07
2022-11-25T09:20:09.111Z,3.90
2022-11-25T09:22:37.279Z,3.60
2022-11-25T09:25:05.017Z,3.80
2022-11-25T09:27:34.054Z,3.93
2022-11-25T09:30:01.424Z,3.93
2022-11-25T09:32:28.970Z,3.70
2022-11-25T09:34:56.442Z,4.40
2022-11-25T09:37:23.833Z,3.80
2022-11-25T09:39:55.912Z,3.90
2022-11-25T09:42:47.930Z,3.40
2022-11-25T09:45:38.426Z,4.30
2022-11-25T09:48:15.504Z,3.37
2022-11-25T09:50:49.644Z,2.80
2022-11-25T09:53:19.483Z,2.33
2022-11-25T09:55:48.515Z,2.47
2022-11-25T09:58:20.588Z,2.97
2022-11-25T10:00:51.085Z,2.70
2022-11-25T10:03:24.025Z,2.20
2022-11-25T10:05:56.666Z,2.67
2022-11-25T10:08:26.010Z,2.60
2022-11-25T10:10:56.173Z,2.60
2022-11-25T10:13:27.603Z,2.70
2022-11-25T10:15:58.211Z,2.73
2022-11-25T10:18:28.495Z,2.73
2022-11-25T10:20:56.018Z,2.30
2022-11-25T10:23:28.319Z,2.80
2022-11-25T10:25:57.804Z,3.00
2022-11-25T10:28:26.765Z,2.80
2022-11-25T10:30:59.535Z,2.40
2022-11-25T10:33:29.188Z,2.80
2022-11-25T10:35:58.805Z,2.90
2022-11-25T10:38:29.041Z,2.70
2022-11-25T10:40:56.874Z,2.40
2022-11-25T10:43:30.216Z,2.40
2022-11-25T10:46:08.381Z,2.23
2022-11-25T10:48:46.569Z,3.10
2022-11-25T10:51:31.857Z,2.57
2022-11-25T10:54:27.879Z,2.50
2022-11-25T10:56:57.601Z,2.00
2022-11-25T10:59:26.883Z,2.50
2022-11-25T11:02:07.531Z,2.10
2022-11-25T11:04:35.973Z,2.10
2022-11-25T11:07:09.134Z,1.97
2022-11-25T11:09:37.992Z,1.77
2022-11-25T11:12:13.454Z,1.90
2022-11-25T11:14:40.881Z,1.90
2022-11-25T11:17:22.221Z,2.50
2022-11-25T11:20:00.638Z,2.37
2022-11-25T11:22:28.073Z,2.40
2022-11-25T11:25:06.501Z,1.97
2022-11-25T11:27:36.745Z,2.90
2022-11-25T11:30:09.580Z,2.30
2022-11-25T11:32:39.618Z,2.10
2022-11-25T11:35:08.383Z,1.80
2022-11-25T11:37:42.167Z,3.97
2022-11-25T11:40:27.206Z,3.30
2022-11-25T11:43:02.010Z,2.40
2022-11-25T11:45:38.116Z,2.20
2022-11-25T11:48:12.289Z,2.10
2022-11-25T11:50:41.228Z,2.23
2022-11-25T11:53:11.738Z,2.00
2022-11-25T11:56:00.297Z,2.60
2022-11-25T11:58:43.162Z,2.03
2022-11-25T12:01:15.391Z,2.67
2022-11-25T12:03:51.553Z,2.20
2022-11-25T12:06:22.523Z,2.40
2022-11-25T12:08:51.951Z,3.00
2022-11-25T12:11:21.575Z,2.70
2022-11-25T12:13:51.088Z,2.37
2022-11-25T12:16:20.729Z,2.83
2022-11-25T12:18:51.377Z,3.17
2022-11-25T12:21:25.496Z,3.33
2022-11-25T12:23:56.767Z,3.30
2022-11-25T12:26:27.963Z,3.43
2022-11-25T12:28:57.828Z,3.27
2022-11-25T12:31:27.594Z,3.13
2022-11-25T12:34:01.022Z,3.00
2022-11-25T12:36:31.974Z,2.83
2022-11-25T12:39:01.824Z,3.40
2022-11-25T12:41:31.788Z,3.00
2022-11-25T12:44:01.537Z,3.60
2022-11-25T12:46:34.501Z,3.40
2022-11-25T12:49:03.475Z,2.40
2022-11-25T12:51:40.959Z,2.50
2022-11-25T12:54:14.250Z,2.50
2022-11-25T12:56:48.641Z,2.57
2022-11-25T12:59:34.104Z,2.20
2022-11-25T13:02:05.876Z,2.33
2022-11-25T13:04:49.970Z,2.87
2022-11-25T13:07:24.768Z,2.20
2022-11-25T13:10:11.173Z,2.67
2022-11-25T13:12:46.063Z,2.47
2022-11-25T13:15:20.022Z,2.27
2022-11-25T13:17:48.872Z,2.57
2022-11-25T13:20:43.848Z,2.10
2022-11-25T13:23:23.638Z,2.47
2022-11-25T13:25:51.876Z,2.20
2022-11-25T13:28:32.505Z,2.87
2022-11-25T13:31:20.524Z,2.20
2022-11-25T13:34:01.855Z,1.87
2022-11-25T13:36:44.751Z,2.30
2022-11-25T13:39:15.110Z,2.33
2022-11-25T13:41:45.194Z,2.43
2022-11-25T13:44:19.790Z,2.63
2022-11-25T13:46:48.548Z,2.30
2022-11-25T13:49:26.793Z,2.53
2022-11-25T13:51:56.678Z,2.50
2022-11-25T13:54:26.869Z,2.80
2022-11-25T13:57:18.047Z,2.67
2022-11-25T13:59:58.987Z,2.20
2022-11-25T14:02:34.297Z,2.70
2022-11-25T14:05:05.947Z,2.23
2022-11-25T14:07:41.879Z,3.10
2022-11-25T14:10:20.480Z,2.70
2022-11-25T14:12:58.726Z,2.67
2022-11-25T14:15:33.421Z,2.50
2022-11-25T14:18:17.254Z,2.70
2022-11-25T14:20:47.098Z,2.87
2022-11-25T14:23:44.567Z,2.90
2022-11-25T14:26:41.709Z,2.30
2022-11-25T14:29:03.502Z,1.93
2022-11-25T14:31:37.245Z,2.70
2022-11-25T14:34:07.910Z,2.00
2022-11-25T14:36:39.440Z,2.40
2022-11-25T14:39:09.865Z,2.13
2022-11-25T14:41:40.563Z,2.33
2022-11-25T14:44:11.457Z,2.00
2022-11-25T14:46:51.499Z,2.50
2022-11-25T14:49:44.825Z,3.00
2022-11-25T14:52:06.404Z,2.43
2022-11-25T14:54:33.906Z,2.83
2022-11-25T14:57:02.844Z,2.13
2022-11-25T14:59:30.338Z,2.50
2022-11-25T15:01:57.742Z,2.90
2022-11-25T15:04:25.893Z,2.60
2022-11-25T15:06:55.010Z,3.03
2022-11-25T15:09:24.267Z,2.37
2022-11-25T15:11:54.121Z,2.33
2022-11-25T15:14:25.778Z,2.20
2022-11-25T15:16:53.595Z,2.40
2022-11-25T15:19:22.499Z,4.07
2022-11-25T15:22:21.850Z,3.43
2022-11-25T15:24:51.595Z,3.00
2022-11-25T15:27:24.989Z,3.40
2022-11-25T15:29:54.668Z,2.67
2022-11-25T15:32:25.736Z,2.53
2022-11-25T15:34:53.910Z,2.60
2022-11-25T15:37:21.433Z,2.77
2022-11-25T15:39:48.872Z,3.30
2022-11-25T15:42:17.626Z,3.23
2022-11-25T15:44:49.474Z,3.40
2022-11-25T15:47:22.022Z,4.60
2022-11-25T15:49:50.700Z,4.40
2022-11-25T15:52:19.536Z,3.70
2022-11-25T15:54:47.909Z,4.20
2022-11-25T15:57:17.034Z,3.73
2022-11-25T15:59:48.837Z,4.13
2022-11-25T16:02:31.182Z,3.73
2022-11-25T16:05:14.838Z,3.83
2022-11-25T16:07:55.605Z,3.13
2022-11-25T16:10:24.256Z,3.50
2022-11-25T16:13:06.564Z,4.60
2022-11-25T16:15:44.233Z,4.80
2022-11-25T16:18:32.944Z,4.90
2022-11-25T16:21:03.600Z,6.10
2022-11-25T16:23:34.527Z,7.27
2022-11-25T16:26:03.466Z,6.53
2022-11-25T16:28:31.434Z,5.60
2022-11-25T16:31:00.124Z,5.70
2022-11-25T16:33:27.523Z,5.73
2022-11-25T16:35:54.953Z,5.57
2022-11-25T16:38:23.791Z,6.47
2022-11-25T16:40:52.340Z,5.73
2022-11-25T16:43:22.411Z,4.50
2022-11-25T16:45:51.673Z,4.60
2022-11-25T16:48:20.641Z,4.70
2022-11-25T16:50:48.234Z,6.00
2022-11-25T16:53:15.717Z,6.20
2022-11-25T16:55:45.337Z,4.97
2022-11-25T16:58:16.902Z,4.10
2022-11-25T17:00:45.444Z,3.77
2022-11-25T17:03:13.259Z,6.60
2022-11-25T17:05:40.651Z,5.67
2022-11-25T17:08:08.131Z,5.10
2022-11-25T17:10:35.579Z,5.20
2022-11-25T17:13:04.567Z,3.80
2022-11-25T17:15:34.359Z,4.67
2022-11-25T17:18:02.713Z,3.90
2022-11-25T17:20:30.200Z,4.23
2022-11-25T17:22:58.101Z,4.20
2022-11-25T17:25:27.592Z,4.00
2022-11-25T17:27:57.374Z,3.33
2022-11-25T17:30:26.986Z,3.70
2022-11-25T17:32:56.917Z,3.73
2022-11-25T17:35:24.499Z,5.00
2022-11-25T17:37:51.917Z,4.60
2022-11-25T17:40:19.577Z,3.07
2022-11-25T17:42:48.754Z,3.33
2022-11-25T17:45:17.112Z,3.43
2022-11-25T17:47:46.210Z,3.30
2022-11-25T17:50:16.588Z,3.87
2022-11-25T17:52:44.098Z,4.57
2022-11-25T17:55:11.558Z,3.10
2022-11-25T17:57:39.363Z,3.30
2022-11-25T18:00:08.462Z,3.60
2022-11-25T18:02:35.953Z,3.60
2022-11-25T18:05:07.764Z,3.90
2022-11-25T18:07:35.230Z,3.80
2022-11-25T18:10:02.646Z,3.87
2022-11-25T18:12:30.834Z,3.60
2022-11-25T18:14:58.741Z,3.70
2022-11-25T18:17:26.137Z,3.50
2022-11-25T18:19:55.507Z,3.10
2022-11-25T18:22:24.856Z,2.80
2022-11-25T18:24:52.408Z,2.90
2022-11-25T18:27:22.159Z,3.20
2022-11-25T18:29:49.893Z,2.80
2022-11-25T18:32:17.323Z,3.90
2022-11-25T18:34:44.830Z,3.43
2022-11-25T18:37:12.709Z,3.43
2022-11-25T18:39:42.064Z,2.90
2022-11-25T18:42:15.368Z,3.23
2022-11-25T18:44:44.615Z,3.40
2022-11-25T18:47:12.370Z,2.90
2022-11-25T18:49:39.868Z,4.20
2022-11-25T18:52:07.282Z,4.90
2022-11-25T18:54:35.105Z,5.00
2022-11-25T18:57:04.710Z,5.07
2022-11-25T18:59:33.678Z,4.70
2022-11-25T19:02:01.229Z,4.83
2022-11-25T19:04:28.982Z,4.40
2022-11-25T19:06:56.413Z,5.60
2022-11-25T19:09:23.846Z,5.93
2022-11-25T19:11:52.847Z,5.70
2022-11-25T19:14:26.102Z,5.93
2022-11-25T19:16:53.792Z,5.33
2022-11-25T19:19:21.271Z,4.60
2022-11-25T19:21:48.673Z,4.10
2022-11-25T19:24:17.283Z,4.20
2022-11-25T19:26:46.384Z,4.00
2022-11-25T19:29:15.910Z,4.93
2022-11-25T19:31:44.906Z,4.20
2022-11-25T19:34:22.429Z,4.00
2022-11-25T19:36:49.837Z,3.77
2022-11-25T19:39:17.882Z,3.53
2022-11-25T19:41:45.398Z,4.00
2022-11-25T19:44:12.774Z,4.03
2022-11-25T19:47:13.153Z,3.53
2022-11-25T19:49:32.777Z,3.50
2022-11-25T19:52:00.300Z,4.10
2022-11-25T19:54:29.081Z,3.53
2022-11-25T19:56:56.475Z,3.80
2022-11-25T19:59:23.888Z,3.90
2022-11-25T20:01:51.556Z,4.33
2022-11-25T20:04:20.760Z,4.00
2022-11-25T20:06:50.176Z,4.43
2022-11-25T20:09:17.648Z,4.50
2022-11-25T20:11:45.034Z,4.13
2022-11-25T20:14:13.090Z,3.40
2022-11-25T20:16:41.928Z,3.30
2022-11-25T20:19:15.140Z,4.00
2022-11-25T20:21:42.633Z,4.20
2022-11-25T20:24:13.758Z,4.20
2022-11-25T20:26:45.795Z,3.90
2022-11-25T20:29:16.130Z,3.80
2022-11-25T20:31:43.587Z,3.50
2022-11-25T20:34:11.106Z,4.00
2022-11-25T20:36:38.723Z,4.20
2022-11-25T20:39:06.534Z,4.10
2022-11-25T20:41:35.296Z,3.60
2022-11-25T20:44:02.772Z,4.73
2022-11-25T20:46:30.511Z,3.70
2022-11-25T20:48:59.091Z,3.67
2022-11-25T20:51:26.762Z,3.80
2022-11-25T20:53:56.078Z,4.20
2022-11-25T20:56:24.447Z,4.00
2022-11-25T20:58:53.384Z,4.13
2022-11-25T21:01:20.892Z,4.57
2022-11-25T21:03:49.233Z,5.00
2022-11-25T21:06:20.444Z,4.27
2022-11-25T21:08:48.836Z,4.23
2022-11-25T21:11:17.183Z,4.67
2022-11-25T21:13:44.740Z,5.10
2022-11-25T21:16:13.663Z,6.50
2022-11-25T21:18:41.762Z,5.63
2022-11-25T21:21:13.206Z,5.93
2022-11-25T21:23:40.658Z,6.07
2022-11-25T21:26:12.485Z,5.87
2022-11-25T21:28:42.304Z,5.47
2022-11-25T21:31:12.040Z,5.60
2022-11-25T21:33:40.849Z,5.63
2022-11-25T21:36:10.907Z,6.03
2022-11-25T21:38:38.314Z,5.80
2022-11-25T21:41:05.909Z,5.57
2022-11-25T21:43:34.588Z,5.70
2022-11-25T21:46:03.111Z,6.37
2022-11-25T21:48:31.219Z,5.27
2022-11-25T21:51:00.357Z,5.50
2022-11-25T21:53:27.780Z,5.97
2022-11-25T21:55:55.207Z,4.40
2022-11-25T21:58:25.635Z,4.80
2022-11-25T22:00:54.760Z,4.50
2022-11-25T22:03:24.435Z,4.40
2022-11-25T22:05:52.138Z,4.30
2022-11-25T22:08:20.911Z,4.17
2022-11-25T22:10:49.370Z,4.43
2022-11-25T22:13:18.196Z,4.47
2022-11-25T22:15:46.234Z,4.87
2022-11-25T22:18:17.969Z,4.90
2022-11-25T22:20:49.345Z,5.13
2022-11-25T22:23:21.520Z,5.83
2022-11-25T22:25:49.416Z,4.80
2022-11-25T22:28:17.831Z,5.37
2022-11-25T22:30:47.252Z,5.40
2022-11-25T22:33:15.347Z,4.83
2022-11-25T22:35:42.742Z,5.63
2022-11-25T22:38:13.868Z,5.90
2022-11-25T22:40:43.289Z,4.70
2022-11-25T22:43:16.134Z,4.80
2022-11-25T22:45:44.360Z,4.30
2022-11-25T22:48:14.057Z,4.27
2022-11-25T22:50:41.521Z,4.30
2022-11-25T22:53:12.816Z,4.30
2022-11-25T22:55:40.264Z,4.93
2022-11-25T22:58:09.022Z,4.30
2022-11-25T23:00:37.342Z,4.50
2022-11-25T23:03:06.392Z,4.40
2022-11-25T23:05:34.884Z,4.17
2022-11-25T23:08:02.769Z,4.00
2022-11-25T23:10:31.538Z,4.43
2022-11-25T23:12:58.919Z,4.50
2022-11-25T23:15:27.761Z,4.53
2022-11-25T23:17:55.836Z,3.87
2022-11-25T23:20:24.275Z,4.27
2022-11-25T23:22:51.678Z,4.40
2022-11-25T23:25:19.726Z,4.50
2022-11-25T23:27:47.511Z,4.00
2022-11-25T23:30:16.679Z,3.70
2022-11-25T23:32:45.909Z,3.90
2022-11-25T23:35:18.242Z,3.90
2022-11-25T23:37:47.497Z,3.60
2022-11-25T23:40:17.437Z,4.03
2022-11-25T23:42:44.896Z,4.00
2022-11-25T23:45:13.745Z,4.40
2022-11-25T23:47:42.064Z,4.30
2022-11-25T23:50:15.842Z,4.07
2022-11-25T23:52:43.227Z,3.87
2022-11-25T23:55:14.043Z,4.70
2022-11-25T23:57:41.808Z,3.73
